Terminal Aerodrome Forecast
Issued by NWS Mt. Holly, NJ

Home | Current Version | Previous Version | Text Only | Print | Product List | Glossary On
Versions: 1 2 3 4 5 6 7 8 9 10 11 12 13 14 15 16 17 18 19
000
FTUS41 KPHI 300900 AAA
TAFPHL
TAF AMD
KPHL 300911Z 3009/0112 00000KT P6SM BKN150
     FM301800 12006KT P6SM SCT040 BKN150
     FM010800 02007KT 5SM BR BKN010=

USA.gov is the U.S. government's official web portal to all federal, state and local government web resources and services.